Reno, NV

4:03 PM PDT on September 20, 2014 (GMT -0700)
Reno-Tahoe International | Change Station
CLOSE
Current Station
Airport
Location: Reno,
Elevation: 4400 ft
Nearby Weather Stations

Elev 4400 ft 39.51 °N, 119.77 °W | Updated 8 minutes ago

Mostly Cloudy
Mostly Cloudy
86 °F
Feels Like 86 °F
N
8
Wind Variable Wind from East

Today
High -- | Low -- °F
--% Chance of Precip.
Yesterday
High -- | Low -- °F
Precip. -- in
6:45 AM 6:59 PM
Waning Crescent, 10% visible
Pressure 29.86 in
Visibility 10.0 miles
Clouds Few 10000 ft
Mostly Cloudy 22000 ft
Dew Point 35 °F
Humidity 16%
Rainfall 0.00 in
Snow Depth 4 in , 0 in , 1 in
UV 2 out of 12
Pollen 6.70 out of 12
Air Quality Not available.
Flu Activity Not available.
METAR KRNO 202255Z 09007KT 10SM FEW100 BKN220 30/02 A3001 RMK AO2 SLP110 TCU DSNT S T03000017

More Conditions Fewer Conditions

Pressure 29.86 in
Visibility 10.0 miles
Clouds Few 10000 ft
Mostly Cloudy 22000 ft
Dew Point 35 °F
Humidity 16%
Rainfall 0.00 in
Snow Depth 4 in , 0 in , 1 in
UV 2 out of 12
Pollen 6.70 out of 12
Air Quality Not available.
Flu Activity Not available.
METAR KRNO 202255Z 09007KT 10SM FEW100 BKN220 30/02 A3001 RMK AO2 SLP110 TCU DSNT S T03000017

More Conditions Fewer Conditions

10-Day Weather Forecast

Almanac

Astronomy

Sep. 20, 2014 Rise Set
Actual Time 6:45 AM PDT 6:59 PM PDT
Civil Twilight 6:18 AM PDT 7:26 PM PDT
Nautical Twilight 5:46 AM PDT 7:57 PM PDT
Astronomical Twilight 5:14 AM PDT 8:29 PM PDT
Moon 3:29 AM PDT 5:05 PM PDT
Length of Visible Light 13h 08m
Length of Day
12h 14m
Tomorrow will be 2m 34s shorter.
Waning Crescent, 10% of the Moon is Illuminated
Today
Waning Crescent
Sep 24
New
Oct 1
First Quarter
Oct 8
Full
Oct 15
Last Quarter

Today's Extremes

State Highs State Lows

Community

WunderPhotos

Upload Photos

1,754,972 photos uploaded!

WunderBlogs® & News

Nearby

Snow Depth

Station Depth Elevation
Jacks Peak 4 in 8420 ft
Pole Creek R.S. 0 in 8330 ft
Diamond Peak 1 in 8000 ft
Buckskin Lower 2 in 6700 ft
Big Creek Summit 0 in 8700 ft

Earthquake Activity

City Distance Mag. Time & Date
Gabbs, Nevada 98 miles 3.3 4:37 AM PDT
2014-09-19
Livermore, California 164 miles 2.6 3:37 AM PDT
2014-09-19
Minimum magnitude displayed is 2.5.

Coastal Water Temperatures

Place Temperature
No Stations Reporting

Nearby Weather Stations